Time;durP1;ratioP1;P1;durP2;ratioP2;P2;SDS_P1;SDS_P2;PMS_P1;PMS_P2;Temp;Humidity;BMP_temperature;BMP_pressure;BME280_temperature;BME280_humidity;BME280_pressure;Samples;Min_cycle;Max_cycle;Signal;HPM_P1;HPM_P2
2022/01/23 00:00:02;;;;;;;11.43;7.35;;;8.00;72.30;;;;;;5099344;28;20059;-79
2022/01/23 00:03:18;;;;;;;10.25;6.18;;;8.10;72.00;;;;;;5094473;28;20047;-79
2022/01/23 00:06:22;;;;;;;12.55;5.68;;;8.10;72.10;;;;;;5094531;28;20510;-78
2022/01/23 00:09:26;;;;;;;15.77;6.43;;;8.20;71.80;;;;;;5094221;28;20047;-79
2022/01/23 00:12:35;;;;;;;12.75;6.53;;;8.30;71.90;;;;;;5094514;28;20587;-78
2022/01/23 00:19:01;;;;;;;14.02;5.93;;;8.30;72.20;;;;;;5094552;28;20063;-79
2022/01/23 00:22:08;;;;;;;10.27;6.35;;;8.30;72.30;;;;;;5093970;28;20400;-79
2022/01/23 00:31:58;;;;;;;11.48;6.45;;;8.20;72.30;;;;;;5081323;28;20043;-79
2022/01/23 00:35:03;;;;;;;14.77;7.45;;;8.20;73.10;;;;;;5081338;28;20218;-79
2022/01/23 00:38:09;;;;;;;18.40;7.72;;;8.10;74.50;;;;;;5081726;28;20047;-79
2022/01/23 00:41:18;;;;;;;14.25;7.40;;;8.10;75.00;;;;;;5093888;28;20503;-80
2022/01/23 00:44:21;;;;;;;12.05;6.47;;;8.10;75.10;;;;;;5081127;28;20059;-79
2022/01/23 00:47:26;;;;;;;11.82;6.35;;;8.10;74.20;;;;;;5093651;28;20035;-79
2022/01/23 00:50:39;;;;;;;14.52;7.43;;;8.20;74.30;;;;;;5093364;28;20043;-79
2022/01/23 00:53:43;;;;;;;11.52;6.25;;;8.20;74.30;;;;;;5081480;28;20043;-79
2022/01/23 00:56:46;;;;;;;19.08;7.57;;;8.00;74.30;;;;;;5081235;28;20078;-79
2022/01/23 00:59:50;;;;;;;10.10;5.35;;;7.90;75.20;;;;;;5093424;28;20396;-79
2022/01/23 01:02:55;;;;;;;9.07;5.03;;;7.80;74.90;;;;;;5093429;28;20051;-79
2022/01/23 01:06:00;;;;;;;10.75;5.18;;;7.90;75.00;;;;;;5093346;28;20040;-79
2022/01/23 01:09:06;;;;;;;10.13;5.15;;;7.80;74.90;;;;;;5080859;28;20039;-76
2022/01/23 01:12:17;;;;;;;8.95;5.00;;;7.80;75.30;;;;;;5080696;28;20047;-77
2022/01/23 01:15:40;;;;;;;11.18;5.32;;;7.70;75.40;;;;;;5093609;28;20036;-79
2022/01/23 01:32:37;;;;;;;10.20;4.80;;;7.70;77.20;;;;;;5080155;28;20399;-78
2022/01/23 01:35:59;;;;;;;9.00;4.70;;;7.80;77.20;;;;;;5080282;28;20051;-79
2022/01/23 01:39:06;;;;;;;13.73;5.65;;;7.80;77.10;;;;;;5080585;28;20040;-78
2022/01/23 01:42:10;;;;;;;10.20;4.88;;;7.90;77.20;;;;;;5092930;28;20051;-78
2022/01/23 01:45:24;;;;;;;9.13;4.55;;;7.90;77.20;;;;;;5092917;28;20058;-79
2022/01/23 01:48:43;;;;;;;10.57;5.07;;;7.90;77.40;;;;;;5080162;28;20036;-79
2022/01/23 01:51:49;;;;;;;21.60;11.32;;;7.90;77.40;;;;;;5079741;28;20050;-78
2022/01/23 01:55:01;;;;;;;16.63;9.02;;;7.90;77.60;;;;;;5080012;28;20047;-79
2022/01/23 02:08:33;;;;;;;14.63;5.22;;;8.00;77.90;;;;;;5092339;28;20058;-77
2022/01/23 02:52:55;;;;;;;10.98;3.47;;;7.80;81.00;;;;;;5078904;28;20043;-76
2022/01/23 02:56:01;;;;;;;10.20;4.22;;;7.70;81.30;;;;;;5079042;28;20043;-79
2022/01/23 02:59:19;;;;;;;12.10;4.07;;;7.70;81.20;;;;;;5091271;28;20035;-79
2022/01/23 03:05:58;;;;;;;8.43;3.78;;;7.70;80.70;;;;;;5078698;28;20036;-79
2022/01/23 03:09:52;;;;;;;9.57;3.65;;;7.70;80.40;;;;;;5078907;28;20160;-79
2022/01/23 03:16:28;;;;;;;5.65;3.22;;;7.70;79.30;;;;;;5091360;28;20028;-79
2022/01/23 03:26:27;;;;;;;6.97;2.35;;;7.80;78.40;;;;;;5091309;28;20036;-79
2022/01/23 03:29:53;;;;;;;6.43;3.17;;;7.80;78.10;;;;;;5091034;28;20032;-79
2022/01/23 03:32:57;;;;;;;5.82;2.60;;;7.80;78.50;;;;;;5091026;28;20646;-79
2022/01/23 03:36:20;;;;;;;8.68;2.88;;;7.70;78.80;;;;;;5091448;28;20032;-79
2022/01/23 03:39:24;;;;;;;3.78;2.53;;;7.70;78.70;;;;;;5091175;28;20040;-79
2022/01/23 03:42:29;;;;;;;6.20;2.70;;;7.70;79.10;;;;;;5091150;28;20040;-79
2022/01/23 03:52:05;;;;;;;5.80;2.33;;;7.70;79.40;;;;;;5078106;28;20040;-79
2022/01/23 03:55:12;;;;;;;4.57;2.42;;;7.60;79.40;;;;;;5078816;28;20028;-79
2022/01/23 03:58:16;;;;;;;4.82;2.17;;;7.70;79.20;;;;;;5090829;28;20044;-76
2022/01/23 04:01:20;;;;;;;9.55;2.50;;;7.70;79.20;;;;;;5078334;28;20036;-76
2022/01/23 04:07:40;;;;;;;5.25;2.25;;;7.70;79.40;;;;;;5078274;28;20032;-76
2022/01/23 04:10:45;;;;;;;6.85;2.20;;;7.70;79.30;;;;;;5078130;28;20040;-76
2022/01/23 04:13:53;;;;;;;6.78;2.10;;;7.70;79.10;;;;;;5077879;28;20484;-76
2022/01/23 04:33:43;;;;;;;3.72;2.00;;;7.40;79.60;;;;;;5081640;28;20044;-79
2022/01/23 05:00:23;;;;;;;5.45;2.55;;;7.50;80.00;;;;;;5081122;28;20044;-79
2022/01/23 05:10:22;;;;;;;5.82;2.20;;;7.50;80.40;;;;;;5093359;28;20036;-78
2022/01/23 05:13:50;;;;;;;6.15;2.83;;;7.50;80.50;;;;;;5084871;28;20464;-78
2022/01/23 05:16:54;;;;;;;3.33;2.20;;;7.60;80.40;;;;;;5080798;28;20036;-78
2022/01/23 05:19:58;;;;;;;10.10;2.70;;;7.50;81.00;;;;;;5080396;28;20036;-78
2022/01/23 05:23:05;;;;;;;8.23;2.97;;;7.50;81.80;;;;;;5080858;28;20039;-78
2022/01/23 05:26:09;;;;;;;7.63;2.50;;;7.40;81.10;;;;;;5093097;28;20588;-78
2022/01/23 05:29:14;;;;;;;4.72;2.05;;;7.50;79.10;;;;;;5069103;28;20468;-78
2022/01/23 05:32:20;;;;;;;4.45;2.13;;;7.40;79.40;;;;;;5092678;28;20032;-78
2022/01/23 05:35:26;;;;;;;6.65;2.75;;;7.50;78.50;;;;;;5069098;28;20040;-78
2022/01/23 05:38:32;;;;;;;7.82;2.80;;;7.50;79.30;;;;;;5080129;28;20036;-78
2022/01/23 05:41:36;;;;;;;4.85;2.45;;;7.50;79.50;;;;;;5080205;28;20380;-78
2022/01/23 05:44:41;;;;;;;7.90;2.70;;;7.40;80.80;;;;;;5080222;28;20048;-78
2022/01/23 05:47:46;;;;;;;5.82;2.38;;;7.30;80.90;;;;;;5080226;28;20028;-78
2022/01/23 05:51:13;;;;;;;7.15;3.03;;;7.20;80.50;;;;;;5092537;28;20044;-78
2022/01/23 05:54:53;;;;;;;3.70;2.35;;;7.10;81.60;;;;;;5032742;28;20033;-78
2022/01/23 05:58:23;;;;;;;5.68;2.80;;;7.00;81.50;;;;;;5091890;28;20036;-78
2022/01/23 06:01:30;;;;;;;6.38;3.35;;;7.00;81.60;;;;;;5079975;28;20032;-78
2022/01/23 06:04:48;;;;;;;6.38;3.00;;;7.00;82.10;;;;;;5079565;28;20052;-78
2022/01/23 06:08:00;;;;;;;5.80;2.50;;;7.00;79.90;;;;;;5079915;28;20028;-78
2022/01/23 06:11:04;;;;;;;7.72;1.95;;;7.10;77.70;;;;;;5092184;28;20036;-78
2022/01/23 06:14:11;;;;;;;5.95;2.10;;;7.10;75.20;;;;;;5079744;28;20040;-78
2022/01/23 06:17:14;;;;;;;6.03;2.20;;;7.30;75.10;;;;;;5079404;28;20381;-78
2022/01/23 06:20:37;;;;;;;4.32;1.92;;;7.40;74.40;;;;;;5091790;28;20364;-78
2022/01/23 06:24:05;;;;;;;14.70;3.10;;;7.40;74.60;;;;;;5092190;28;20044;-78
2022/01/23 06:27:32;;;;;;;5.38;2.58;;;7.40;74.40;;;;;;5079347;28;20396;-78
2022/01/23 06:30:38;;;;;;;8.60;2.30;;;7.30;75.40;;;;;;5079244;28;20039;-78
2022/01/23 06:33:43;;;;;;;9.43;2.67;;;7.30;75.80;;;;;;5091609;28;20048;-78
2022/01/23 06:36:50;;;;;;;14.45;2.60;;;7.30;76.60;;;;;;5091689;28;20036;-78
2022/01/23 06:39:55;;;;;;;6.93;2.90;;;7.30;77.20;;;;;;5079002;28;20050;-78
2022/01/23 06:43:22;;;;;;;4.68;2.17;;;7.20;77.50;;;;;;5091630;28;20032;-78
2022/01/23 06:46:39;;;;;;;5.40;1.85;;;7.20;76.10;;;;;;5079120;28;20044;-78
2022/01/23 06:49:43;;;;;;;8.77;2.63;;;7.30;75.80;;;;;;5079023;28;20143;-78
2022/01/23 06:52:49;;;;;;;4.35;2.75;;;7.30;76.60;;;;;;5079005;28;20040;-78
2022/01/23 06:55:53;;;;;;;7.15;3.15;;;7.40;76.00;;;;;;5079227;28;20036;-78
2022/01/23 06:58:57;;;;;;;6.82;2.95;;;7.40;76.00;;;;;;5078732;28;20029;-78
2022/01/23 07:02:03;;;;;;;8.43;3.17;;;7.40;75.90;;;;;;5079008;28;20044;-78
2022/01/23 07:05:21;;;;;;;12.35;3.63;;;7.30;76.90;;;;;;5078777;28;20051;-78
2022/01/23 07:08:40;;;;;;;9.55;3.42;;;7.30;77.90;;;;;;5091610;28;20498;-78
2022/01/23 07:12:04;;;;;;;15.77;9.27;;;7.30;78.00;;;;;;5078679;28;20032;-78
2022/01/23 07:15:27;;;;;;;6.90;2.72;;;7.20;78.30;;;;;;5091274;28;20043;-78
2022/01/23 07:18:31;;;;;;;9.18;3.70;;;7.30;74.70;;;;;;5091103;28;20032;-78
2022/01/23 07:21:48;;;;;;;9.88;4.35;;;7.50;74.40;;;;;;5078454;28;20036;-78
2022/01/23 07:24:53;;;;;;;10.82;5.07;;;7.70;75.30;;;;;;5078753;28;20048;-78
2022/01/23 07:27:59;;;;;;;13.20;5.07;;;7.80;75.00;;;;;;5078975;28;20043;-78
2022/01/23 07:31:05;;;;;;;11.02;4.63;;;8.00;74.70;;;;;;5078855;28;20055;-79
2022/01/23 07:34:11;;;;;;;9.40;4.50;;;8.20;74.00;;;;;;5090737;28;20125;-78
2022/01/23 07:37:15;;;;;;;8.85;4.40;;;8.40;73.10;;;;;;5078910;28;20040;-78
2022/01/23 07:40:55;;;;;;;7.43;2.80;;;8.50;73.00;;;;;;5069386;28;20385;-78
2022/01/23 07:44:11;;;;;;;5.85;2.38;;;8.60;71.50;;;;;;5078688;28;20044;-78
2022/01/23 07:47:28;;;;;;;10.48;5.00;;;8.70;71.20;;;;;;5078422;28;20036;-78
2022/01/23 07:50:38;;;;;;;11.70;6.15;;;8.80;72.70;;;;;;5101668;28;20495;-78
2022/01/23 07:53:51;;;;;;;15.48;6.72;;;8.70;71.90;;;;;;5078719;28;20043;-78
2022/01/23 07:57:14;;;;;;;7.32;4.05;;;8.60;71.60;;;;;;5090753;28;20039;-78
2022/01/23 08:00:42;;;;;;;5.38;3.45;;;8.70;70.90;;;;;;5093144;28;20036;-78
2022/01/23 08:03:46;;;;;;;5.07;3.15;;;8.80;70.20;;;;;;5082543;28;20040;-78
2022/01/23 08:07:08;;;;;;;4.65;2.80;;;8.80;70.50;;;;;;5082049;28;20052;-78
2022/01/23 08:10:32;;;;;;;9.18;1.80;;;8.90;69.50;;;;;;5079366;28;20036;-78
2022/01/23 08:13:36;;;;;;;4.90;1.83;;;9.00;66.10;;;;;;5082296;28;20360;-78
2022/01/23 08:16:40;;;;;;;4.30;1.80;;;9.10;66.20;;;;;;5095359;28;20039;-78
2022/01/23 08:19:44;;;;;;;2.53;1.52;;;9.20;65.70;;;;;;5094931;28;20032;-77
2022/01/23 08:22:48;;;;;;;4.47;1.40;;;9.20;66.10;;;;;;5095746;28;20047;-78
2022/01/23 08:25:53;;;;;;;3.47;1.60;;;9.30;66.50;;;;;;5094286;28;20052;-78
2022/01/23 08:28:57;;;;;;;9.23;2.40;;;9.50;65.00;;;;;;5094555;28;20044;-78
2022/01/23 08:32:01;;;;;;;4.07;2.00;;;9.60;65.00;;;;;;5082032;28;20036;-78
2022/01/23 08:35:06;;;;;;;3.53;1.65;;;9.80;64.20;;;;;;5094669;28;20048;-78
2022/01/23 08:38:10;;;;;;;5.47;1.83;;;10.00;64.00;;;;;;5094480;28;20036;-77
2022/01/23 08:44:26;;;;;;;6.22;1.92;;;10.50;62.40;;;;;;5094444;28;20055;-78
2022/01/23 08:47:30;;;;;;;3.53;1.30;;;10.80;62.00;;;;;;5094296;28;20039;-78
2022/01/23 08:50:35;;;;;;;6.82;2.42;;;10.90;60.00;;;;;;5094005;28;20047;-78
2022/01/23 08:53:39;;;;;;;3.67;1.67;;;10.90;60.20;;;;;;5094109;28;20039;-77
2022/01/23 08:56:44;;;;;;;3.53;1.70;;;11.10;60.30;;;;;;5081505;28;20503;-78
2022/01/23 08:59:49;;;;;;;9.40;2.17;;;11.10;59.10;;;;;;5093484;28;20043;-76
2022/01/23 09:02:55;;;;;;;3.00;1.30;;;11.20;59.40;;;;;;5093513;28;20039;-77
2022/01/23 09:05:58;;;;;;;3.58;1.10;;;11.30;57.50;;;;;;5093322;28;20046;-76
2022/01/23 09:09:04;;;;;;;8.00;2.05;;;11.20;56.40;;;;;;5093479;28;20047;-77
2022/01/23 09:12:30;;;;;;;4.65;1.38;;;11.20;56.50;;;;;;5080678;28;20043;-76
2022/01/23 09:15:34;;;;;;;3.17;1.42;;;11.30;57.30;;;;;;5093278;28;20039;-76
2022/01/23 09:18:37;;;;;;;4.97;2.38;;;11.40;56.40;;;;;;5093467;28;20063;-76
2022/01/23 09:21:42;;;;;;;3.03;1.00;;;11.40;57.00;;;;;;5080558;28;20039;-77
2022/01/23 09:24:46;;;;;;;4.03;1.85;;;11.40;56.10;;;;;;5093171;28;20066;-76
2022/01/23 09:27:50;;;;;;;1.60;1.25;;;11.60;57.50;;;;;;5092833;28;20423;-77
2022/01/23 09:30:54;;;;;;;2.85;1.30;;;11.80;56.30;;;;;;5092742;28;20055;-76
2022/01/23 09:33:59;;;;;;;2.97;1.40;;;11.90;55.40;;;;;;5092933;28;20051;-77
2022/01/23 09:37:06;;;;;;;15.65;1.60;;;12.00;55.50;;;;;;5092704;28;20043;-76
2022/01/23 09:40:11;;;;;;;2.45;1.30;;;12.10;55.80;;;;;;5092764;28;20054;-76
2022/01/23 09:43:20;;;;;;;6.38;1.63;;;12.20;54.20;;;;;;5092953;28;20047;-76
2022/01/23 09:46:24;;;;;;;6.78;1.20;;;12.30;54.40;;;;;;5080052;28;20063;-76
2022/01/23 09:49:31;;;;;;;3.42;1.83;;;12.40;54.70;;;;;;5092453;28;20039;-78
2022/01/23 09:52:36;;;;;;;5.28;2.00;;;12.60;55.80;;;;;;5092869;28;20054;-77
2022/01/23 09:55:44;;;;;;;3.97;1.73;;;13.20;55.70;;;;;;5092558;28;20498;-78
2022/01/23 09:58:48;;;;;;;4.78;1.90;;;13.40;53.60;;;;;;5092320;28;20043;-77
2022/01/23 10:01:56;;;;;;;4.50;2.45;;;13.70;52.30;;;;;;5092364;28;20043;-77
2022/01/23 10:05:00;;;;;;;3.78;2.80;;;13.60;50.50;;;;;;5092259;28;20534;-77
2022/01/23 10:08:06;;;;;;;7.28;3.50;;;13.40;51.10;;;;;;5092313;28;20499;-78
2022/01/23 10:11:13;;;;;;;4.82;1.70;;;13.10;51.20;;;;;;5092309;28;20043;-77
2022/01/23 10:14:19;;;;;;;4.15;1.60;;;13.20;51.30;;;;;;5092251;28;20043;-77
2022/01/23 10:17:23;;;;;;;3.97;2.35;;;13.10;51.20;;;;;;5092181;28;20042;-77
2022/01/23 10:20:27;;;;;;;3.33;1.95;;;13.10;52.20;;;;;;5092040;28;20055;-77
2022/01/23 10:23:31;;;;;;;3.13;1.60;;;13.40;52.30;;;;;;5091591;28;20047;-77
2022/01/23 10:26:52;;;;;;;5.85;2.38;;;13.60;52.20;;;;;;5079158;28;20055;-77
2022/01/23 10:29:56;;;;;;;4.15;1.83;;;13.70;51.10;;;;;;5091812;28;20051;-78
2022/01/23 10:33:07;;;;;;;2.63;1.40;;;13.90;50.70;;;;;;5091508;28;20059;-78
2022/01/23 10:36:17;;;;;;;5.20;2.17;;;14.20;51.20;;;;;;5091995;28;20043;-78
2022/01/23 10:39:21;;;;;;;5.60;2.13;;;14.50;51.90;;;;;;5091839;28;20047;-78
2022/01/23 10:49:08;;;;;;;4.57;2.15;;;14.70;50.90;;;;;;5091547;28;20388;-77
2022/01/23 10:52:27;;;;;;;3.53;2.10;;;14.70;50.70;;;;;;5091857;28;20483;-78
2022/01/23 10:55:34;;;;;;;4.30;2.22;;;14.80;52.20;;;;;;5091448;28;20043;-78
2022/01/23 10:58:37;;;;;;;3.88;2.08;;;14.90;51.90;;;;;;5091275;28;20623;-78
2022/01/23 11:02:09;;;;;;;5.35;2.75;;;15.10;52.60;;;;;;5091541;28;20066;-79
2022/01/23 11:05:15;;;;;;;4.82;2.30;;;15.20;52.00;;;;;;5091191;28;20059;-78
2022/01/23 11:08:25;;;;;;;3.20;1.85;;;15.20;50.80;;;;;;5091264;28;20376;-77
2022/01/23 11:11:40;;;;;;;3.67;2.33;;;15.10;51.80;;;;;;5091352;28;20047;-78
2022/01/23 11:18:18;;;;;;;4.53;2.53;;;14.90;53.30;;;;;;5091303;28;20047;-78
2022/01/23 11:21:22;;;;;;;3.22;2.25;;;14.90;53.50;;;;;;5091177;28;20043;-79
2022/01/23 11:24:39;;;;;;;6.25;2.42;;;15.00;53.50;;;;;;5091295;28;20043;-77
2022/01/23 11:27:43;;;;;;;6.43;3.25;;;14.80;51.60;;;;;;5091278;28;20046;-78
2022/01/23 11:30:48;;;;;;;6.70;2.78;;;14.70;53.30;;;;;;5090769;28;20043;-78
2022/01/23 11:33:52;;;;;;;5.80;2.30;;;14.70;53.90;;;;;;5090594;28;20051;-79
2022/01/23 11:36:56;;;;;;;4.97;2.53;;;14.60;52.50;;;;;;5095343;28;20503;-78
2022/01/23 11:40:08;;;;;;;7.45;3.53;;;14.60;53.90;;;;;;5094826;28;20106;-78
2022/01/23 11:53:51;;;;;;;2.95;2.28;;;14.10;54.40;;;;;;5094861;28;20060;-77
2022/01/23 11:56:59;;;;;;;5.05;2.30;;;14.00;54.90;;;;;;5082594;28;20043;-78
2022/01/23 12:00:36;;;;;;;7.40;2.53;;;13.90;54.50;;;;;;5094384;28;20398;-78
2022/01/23 12:04:06;;;;;;;4.43;2.50;;;13.90;54.30;;;;;;5094831;28;20058;-78
2022/01/23 12:07:15;;;;;;;7.13;4.00;;;13.80;55.60;;;;;;5094602;28;20051;-78
2022/01/23 12:10:29;;;;;;;6.20;3.95;;;13.90;57.20;;;;;;5094626;28;20494;-77
2022/01/23 12:13:57;;;;;;;6.30;4.10;;;13.90;56.90;;;;;;5094586;28;20387;-78
2022/01/23 12:17:01;;;;;;;4.38;3.03;;;14.00;56.70;;;;;;5094373;28;20039;-78
2022/01/23 12:20:06;;;;;;;5.47;2.33;;;14.00;56.20;;;;;;5094292;28;20043;-77
2022/01/23 12:23:11;;;;;;;4.47;2.85;;;14.00;55.20;;;;;;5094406;28;20031;-77
2022/01/23 12:26:19;;;;;;;6.78;3.08;;;14.00;55.90;;;;;;5093953;28;20059;-78
2022/01/23 12:29:24;;;;;;;3.33;2.35;;;14.00;56.60;;;;;;5081533;28;20031;-78
2022/01/23 12:32:32;;;;;;;7.07;3.50;;;14.00;56.60;;;;;;5093919;28;20051;-77
2022/01/23 12:35:45;;;;;;;4.88;2.70;;;14.00;56.00;;;;;;5093982;28;20047;-77
2022/01/23 12:38:53;;;;;;;5.82;3.65;;;13.80;55.20;;;;;;5093921;28;20043;-78
2022/01/23 12:42:02;;;;;;;15.80;9.25;;;13.70;55.10;;;;;;5093731;28;20035;-77
2022/01/23 12:45:44;;;;;;;25.85;15.00;;;13.70;56.80;;;;;;5093671;28;20051;-79
2022/01/23 12:48:49;;;;;;;10.55;6.05;;;13.70;56.90;;;;;;5093761;28;20039;-79
2022/01/23 12:52:05;;;;;;;12.30;5.68;;;13.70;57.10;;;;;;5093599;28;20043;-79
2022/01/23 12:55:18;;;;;;;9.13;6.30;;;13.80;56.90;;;;;;5093638;28;20063;-78
2022/01/23 12:58:22;;;;;;;11.68;8.18;;;13.80;57.20;;;;;;5093562;28;20051;-78
2022/01/23 13:01:28;;;;;;;12.13;6.70;;;13.80;57.40;;;;;;5093716;28;20059;-78
2022/01/23 13:04:34;;;;;;;27.60;15.10;;;13.80;58.00;;;;;;5093522;28;20048;-76
2022/01/23 13:07:49;;;;;;;26.85;16.10;;;13.80;59.20;;;;;;5093476;28;20514;-78
2022/01/23 13:14:06;;;;;;;16.63;9.00;;;13.70;57.70;;;;;;5093564;28;20047;-78
2022/01/23 13:31:05;;;;;;;17.90;9.25;;;13.60;60.10;;;;;;5092910;28;20039;-78
2022/01/23 13:34:29;;;;;;;7.05;4.82;;;13.50;60.00;;;;;;5092702;28;20043;-78
2022/01/23 13:37:36;;;;;;;6.03;4.25;;;13.50;59.50;;;;;;5092916;28;20047;-78
2022/01/23 13:40:42;;;;;;;7.55;4.05;;;13.40;58.70;;;;;;5080095;28;20495;-78
2022/01/23 14:00:41;;;;;;;16.38;9.63;;;13.30;62.30;;;;;;5092313;28;20403;-77
2022/01/23 14:03:45;;;;;;;34.22;21.52;;;13.20;62.90;;;;;;5079971;28;20043;-79
2022/01/23 14:06:50;;;;;;;21.90;13.55;;;13.10;63.40;;;;;;5092204;28;20054;-77
2022/01/23 14:09:57;;;;;;;15.68;10.27;;;13.10;63.50;;;;;;5092303;28;20051;-78
2022/01/23 14:13:19;;;;;;;15.18;9.77;;;13.00;63.30;;;;;;5092142;28;20039;-77
2022/01/23 14:16:27;;;;;;;27.38;13.25;;;12.90;64.20;;;;;;5092283;28;20106;-78
2022/01/23 14:19:30;;;;;;;10.70;7.30;;;12.90;64.30;;;;;;5091674;28;20043;-78
2022/01/23 14:22:37;;;;;;;12.77;7.82;;;12.90;65.50;;;;;;5079265;28;20046;-78
2022/01/23 14:25:56;;;;;;;12.60;8.98;;;12.80;64.90;;;;;;5091765;28;20522;-78
2022/01/23 14:29:06;;;;;;;17.92;9.93;;;12.80;65.80;;;;;;5091838;28;20043;-78
2022/01/23 14:32:19;;;;;;;13.07;9.07;;;12.80;67.70;;;;;;5091858;28;20050;-78
2022/01/23 14:35:29;;;;;;;14.73;7.60;;;12.70;70.80;;;;;;5051744;28;20048;-78
2022/01/23 14:38:33;;;;;;;7.63;5.55;;;12.70;72.10;;;;;;5051799;28;20071;-78
2022/01/23 14:41:43;;;;;;;13.10;8.63;;;12.60;72.50;;;;;;5051499;28;20040;-77
2022/01/23 14:44:47;;;;;;;13.70;8.35;;;12.60;71.80;;;;;;5051509;28;20072;-78
2022/01/23 14:47:51;;;;;;;14.30;7.78;;;12.50;73.30;;;;;;5051397;28;20068;-77
2022/01/23 14:50:56;;;;;;;12.00;7.13;;;12.50;73.10;;;;;;5051260;28;20064;-78
2022/01/23 14:54:01;;;;;;;12.10;6.90;;;12.40;73.70;;;;;;5051490;28;20048;-78
2022/01/23 14:57:08;;;;;;;12.65;6.95;;;12.40;74.20;;;;;;5051024;28;20076;-78
2022/01/23 15:00:13;;;;;;;11.50;6.82;;;12.30;73.50;;;;;;5051002;28;20059;-78
2022/01/23 15:03:18;;;;;;;10.20;6.63;;;12.30;74.40;;;;;;5050927;28;20044;-77
2022/01/23 15:06:23;;;;;;;13.02;6.90;;;12.30;75.10;;;;;;5051045;28;20047;-78
2022/01/23 15:09:27;;;;;;;14.77;7.07;;;12.30;75.10;;;;;;5050786;28;20397;-77
2022/01/23 15:12:32;;;;;;;13.02;6.60;;;12.30;75.10;;;;;;5050907;28;20370;-78
2022/01/23 15:15:36;;;;;;;12.52;6.80;;;12.20;75.20;;;;;;5051009;28;20044;-78
2022/01/23 15:18:40;;;;;;;10.48;6.18;;;12.20;75.60;;;;;;5051235;28;20587;-78
2022/01/23 15:21:44;;;;;;;11.20;6.10;;;12.20;75.50;;;;;;5050139;28;20048;-78
2022/01/23 15:24:48;;;;;;;10.55;6.35;;;12.10;75.40;;;;;;5050752;28;20135;-78
2022/01/23 15:27:52;;;;;;;10.40;6.03;;;12.10;76.30;;;;;;5050961;28;20048;-78
2022/01/23 15:30:57;;;;;;;10.50;6.03;;;12.00;75.70;;;;;;5049945;28;20048;-78
2022/01/23 15:34:01;;;;;;;10.82;6.63;;;12.00;76.20;;;;;;5077803;28;20412;-78
2022/01/23 15:37:05;;;;;;;12.80;6.75;;;11.90;76.30;;;;;;5090768;28;20043;-78
2022/01/23 15:40:11;;;;;;;14.15;8.50;;;11.90;76.70;;;;;;5090859;28;20353;-78
2022/01/23 15:43:15;;;;;;;14.73;7.85;;;11.90;76.90;;;;;;5091188;28;20051;-78
2022/01/23 15:46:20;;;;;;;14.13;8.30;;;11.80;77.00;;;;;;5090667;28;20047;-78
2022/01/23 15:49:23;;;;;;;17.75;8.27;;;11.70;77.20;;;;;;5078426;28;20046;-78
2022/01/23 15:52:27;;;;;;;16.63;9.70;;;11.70;78.00;;;;;;5090961;28;20134;-78
2022/01/23 15:55:32;;;;;;;18.40;11.02;;;11.60;78.20;;;;;;5090417;28;20039;-77
2022/01/23 15:58:36;;;;;;;24.52;10.98;;;11.60;78.60;;;;;;5078548;28;20101;-78
2022/01/23 16:01:42;;;;;;;20.13;10.65;;;11.60;79.20;;;;;;5090831;28;20039;-78
2022/01/23 16:04:46;;;;;;;20.42;11.52;;;11.50;79.00;;;;;;5090262;28;20081;-78
2022/01/23 16:07:50;;;;;;;19.80;12.93;;;11.50;79.70;;;;;;5090789;28;20066;-78
2022/01/23 16:10:54;;;;;;;17.92;12.20;;;11.50;79.90;;;;;;5090245;28;20534;-78
2022/01/23 16:13:58;;;;;;;16.95;10.85;;;11.40;80.20;;;;;;5090291;28;20058;-78
2022/01/23 16:17:03;;;;;;;20.38;10.95;;;11.40;80.60;;;;;;5090806;28;20047;-78
2022/01/23 16:20:09;;;;;;;15.20;10.38;;;11.40;80.80;;;;;;5090385;28;20063;-78
2022/01/23 16:23:13;;;;;;;15.98;9.52;;;11.30;81.40;;;;;;5094081;28;20035;-78
2022/01/23 16:26:18;;;;;;;16.42;10.13;;;11.20;81.70;;;;;;5093963;28;20051;-78
2022/01/23 16:29:23;;;;;;;24.08;13.65;;;11.30;82.00;;;;;;5094010;28;20035;-78
2022/01/23 16:32:27;;;;;;;26.38;15.15;;;11.20;82.30;;;;;;5081425;28;20051;-78
2022/01/23 16:35:31;;;;;;;24.90;16.63;;;11.10;82.70;;;;;;5093852;28;20110;-78
2022/01/23 16:38:36;;;;;;;23.90;14.70;;;11.00;82.90;;;;;;5093614;28;20051;-78
2022/01/23 16:41:40;;;;;;;28.38;16.45;;;11.00;83.20;;;;;;5093829;28;20391;-78
2022/01/23 16:44:44;;;;;;;26.98;15.95;;;10.90;83.70;;;;;;5093635;28;20043;-78
2022/01/23 16:47:49;;;;;;;32.78;18.17;;;10.90;84.40;;;;;;5093697;28;20047;-78
2022/01/23 16:50:54;;;;;;;24.00;13.65;;;10.90;84.00;;;;;;5093738;28;20039;-78
2022/01/23 16:54:03;;;;;;;57.40;28.25;;;11.00;83.20;;;;;;5080998;28;20066;-78
2022/01/23 16:57:07;;;;;;;51.05;30.63;;;10.90;83.20;;;;;;5093510;28;20051;-78
2022/01/23 17:00:12;;;;;;;41.50;28.55;;;10.90;83.40;;;;;;5080477;28;20051;-78
2022/01/23 17:03:15;;;;;;;53.97;27.75;;;10.80;83.00;;;;;;5092801;28;20062;-78
2022/01/23 17:06:20;;;;;;;53.03;29.05;;;10.70;83.60;;;;;;5091857;28;20055;-78
2022/01/23 17:09:24;;;;;;;56.45;29.75;;;10.60;84.00;;;;;;5093008;28;20043;-78
2022/01/23 17:12:28;;;;;;;50.60;31.35;;;10.50;84.80;;;;;;5093086;28;20043;-78
2022/01/23 17:15:31;;;;;;;46.83;29.35;;;10.40;85.20;;;;;;5093113;28;20043;-78
2022/01/23 17:18:36;;;;;;;59.20;30.63;;;10.30;85.60;;;;;;5092916;28;20387;-78
2022/01/23 17:21:40;;;;;;;52.72;29.48;;;10.10;86.20;;;;;;5092653;28;20039;-78
2022/01/23 17:24:44;;;;;;;55.90;31.42;;;10.10;86.80;;;;;;5091991;28;20039;-78
2022/01/23 17:27:49;;;;;;;65.05;37.38;;;10.10;87.10;;;;;;5092787;28;20059;-78
2022/01/23 17:30:53;;;;;;;82.18;42.72;;;10.10;87.50;;;;;;5092523;28;20392;-78
2022/01/23 17:33:58;;;;;;;84.88;40.78;;;10.00;87.60;;;;;;5092489;28;20047;-78
2022/01/23 17:37:02;;;;;;;60.00;35.15;;;10.10;88.00;;;;;;5092652;28;20035;-78
2022/01/23 17:40:07;;;;;;;56.80;31.80;;;10.10;86.90;;;;;;5092674;28;20058;-78
2022/01/23 17:43:12;;;;;;;56.00;34.42;;;9.90;87.10;;;;;;5079886;28;20404;-78
2022/01/23 17:46:21;;;;;;;49.28;32.45;;;9.80;87.50;;;;;;5092174;28;20051;-79
2022/01/23 17:49:38;;;;;;;58.92;37.78;;;9.70;87.70;;;;;;5092458;28;20380;-78
2022/01/23 17:52:43;;;;;;;61.13;36.03;;;9.80;87.80;;;;;;5092477;28;20055;-78
2022/01/23 17:55:47;;;;;;;74.88;38.67;;;9.70;88.10;;;;;;5092071;28;20039;-79
2022/01/23 17:58:52;;;;;;;73.00;39.33;;;9.80;88.20;;;;;;5092148;28;20039;-78
2022/01/23 18:01:57;;;;;;;83.40;39.97;;;9.70;88.10;;;;;;5092157;28;20043;-76
2022/01/23 18:05:02;;;;;;;67.70;39.67;;;;;;;;;;5092195;28;20063;-76
2022/01/23 18:08:07;;;;;;;82.10;48.58;;;;;;;;;;5092463;28;20047;-75
2022/01/23 18:11:11;;;;;;;93.47;57.22;;;;;;;;;;5068073;28;20043;-78
2022/01/23 18:14:15;;;;;;;94.20;51.65;;;;;;;;;;5090182;28;20053;-76
2022/01/23 18:17:21;;;;;;;100.47;53.03;;;;;;;;;;5089788;28;20423;-76
2022/01/23 18:20:26;;;;;;;85.88;46.20;;;;;;;;;;5091018;28;20407;-77
2022/01/23 18:23:30;;;;;;;59.65;37.45;;;;;;;;;;5078723;28;20039;-76
2022/01/23 18:26:38;;;;;;;73.72;46.25;;;;;;;;;;5091542;28;20063;-77
2022/01/23 18:29:42;;;;;;;72.22;43.97;;;;;;;;;;5091809;28;20039;-76
2022/01/23 18:32:47;;;;;;;70.55;41.90;;;;;;;;;;5091578;28;20051;-76
2022/01/23 18:35:51;;;;;;;73.55;45.22;;;;;;;;;;5091508;28;20039;-77
2022/01/23 18:38:55;;;;;;;83.65;46.13;;;;;;;;;;5091540;28;20039;-77
2022/01/23 18:41:59;;;;;;;88.55;51.63;;;;;;;;;;5091450;28;20498;-77
2022/01/23 18:45:05;;;;;;;73.40;45.17;;;;;;;;;;5091127;28;20040;-77
2022/01/23 18:48:10;;;;;;;93.78;59.25;;;;;;;;;;5091726;28;20055;-77
2022/01/23 18:51:14;;;;;;;115.75;71.50;;;;;;;;;;5091719;28;20039;-77
2022/01/23 18:57:43;;;;;;;122.30;77.88;;;;;;;;;;5091456;28;20039;-77
2022/01/23 19:00:49;;;;;;;125.68;76.90;;;;;;;;;;5091168;28;20522;-77
2022/01/23 19:04:02;;;;;;;125.97;80.13;;;;;;;;;;5091012;28;20039;-77
2022/01/23 19:07:47;;;;;;;159.48;92.25;;;;;;;;;;5078417;28;20071;-77
2022/01/23 19:10:39;;;;;;;130.07;75.22;;;;;;;;;;5090860;28;20042;-77
2022/01/23 19:13:43;;;;;;;100.78;62.60;;;;;;;;;;5091377;28;20047;-77
2022/01/23 19:16:49;;;;;;;103.50;63.47;;;;;;;;;;5091134;28;20039;-76
2022/01/23 19:19:53;;;;;;;104.35;63.05;;;;;;;;;;5090984;28;20102;-77
2022/01/23 19:22:59;;;;;;;105.53;60.20;;;;;;;;;;5067156;28;20043;-77
2022/01/23 19:26:03;;;;;;;92.13;56.90;;;;;;;;;;5090900;28;20039;-77
2022/01/23 19:29:09;;;;;;;97.53;58.80;;;;;;;;;;5090848;28;20051;-76
2022/01/23 19:32:13;;;;;;;101.90;61.65;;;;;;;;;;5090993;28;20043;-77
2022/01/23 19:35:21;;;;;;;102.88;65.47;;;;;;;;;;5091017;28;20062;-77
2022/01/23 19:38:27;;;;;;;105.70;66.10;;;;;;;;;;5090755;28;20043;-76
2022/01/23 19:41:37;;;;;;;113.13;68.53;;;;;;;;;;5091029;28;20043;-76
2022/01/23 19:44:52;;;;;;;105.63;69.30;;;;;;;;;;5091843;28;20047;-77
2022/01/23 19:48:13;;;;;;;108.72;72.03;;;;;;;;;;5090648;28;20051;-76
2022/01/23 19:51:17;;;;;;;115.93;72.97;;;;;;;;;;5078398;28;20043;-77
2022/01/23 19:54:21;;;;;;;113.82;76.30;;;;;;;;;;5078353;28;20502;-77